createdAt,value
2022-12-13T00:01:34.367Z,-0.73
2022-12-13T00:04:05.070Z,-0.77
2022-12-13T00:06:34.311Z,-0.78
2022-12-13T00:09:02.848Z,-0.80
2022-12-13T00:11:30.717Z,-0.82
2022-12-13T00:13:59.276Z,-0.86
2022-12-13T00:16:28.449Z,-0.91
2022-12-13T00:18:59.484Z,-0.94
2022-12-13T00:21:30.966Z,-0.93
2022-12-13T00:24:00.107Z,-0.90
2022-12-13T00:26:30.175Z,-0.91
2022-12-13T00:29:00.597Z,-0.93
2022-12-13T00:34:22.504Z,-0.99
2022-12-13T00:36:50.779Z,-0.89
2022-12-13T00:39:19.347Z,-0.90
2022-12-13T00:41:47.735Z,-0.89
2022-12-13T00:44:15.980Z,-0.96
2022-12-13T00:46:44.236Z,-0.94
2022-12-13T00:49:13.424Z,-0.81
2022-12-13T00:51:42.662Z,-0.81
2022-12-13T00:54:11.497Z,-0.80
2022-12-13T00:56:39.685Z,-0.80
2022-12-13T00:59:07.537Z,-0.81
2022-12-13T01:01:37.540Z,-0.83
2022-12-13T01:04:06.809Z,-0.81
2022-12-13T01:06:37.770Z,-0.81
2022-12-13T01:09:12.356Z,-0.90
2022-12-13T01:11:40.276Z,-0.85
2022-12-13T01:14:08.150Z,-0.83
2022-12-13T01:16:36.180Z,-0.79
2022-12-13T01:19:04.350Z,-0.75
2022-12-13T01:21:32.216Z,-0.76
2022-12-13T01:24:04.363Z,-0.83
2022-12-13T01:26:34.965Z,-0.84
2022-12-13T01:29:05.285Z,-0.83
2022-12-13T01:31:33.560Z,-0.99
2022-12-13T01:34:10.668Z,-0.91
2022-12-13T01:36:39.227Z,-0.99
2022-12-13T01:39:14.397Z,-1.03
2022-12-13T01:41:45.552Z,-1.07
2022-12-13T01:44:50.739Z,-1.07
2022-12-13T01:47:23.775Z,-1.12
2022-12-13T01:49:53.158Z,-1.17
2022-12-13T01:52:22.610Z,-1.23
2022-12-13T01:54:54.182Z,-1.31
2022-12-13T01:57:24.441Z,-1.37
2022-12-13T01:59:53.722Z,-1.38
2022-12-13T02:02:22.073Z,-1.40
2022-12-13T02:04:54.371Z,-1.40
2022-12-13T02:07:27.566Z,-1.37
2022-12-13T02:09:58.757Z,-1.38
2022-12-13T02:12:31.256Z,-1.36
2022-12-13T02:15:01.622Z,-1.40
2022-12-13T02:17:44.499Z,-1.42
2022-12-13T02:20:44.287Z,-1.45
2022-12-13T02:23:57.826Z,-1.45
2022-12-13T02:26:44.160Z,-1.44
2022-12-13T02:29:41.158Z,-1.46
2022-12-13T02:32:17.348Z,-1.53
2022-12-13T02:34:51.545Z,-1.52
2022-12-13T02:37:26.315Z,-1.57
2022-12-13T02:40:01.730Z,-1.58
2022-12-13T02:42:34.902Z,-1.59
2022-12-13T02:45:08.352Z,-1.58
2022-12-13T02:47:41.532Z,-1.56
2022-12-13T02:50:14.948Z,-1.61
2022-12-13T02:52:46.625Z,-1.64
2022-12-13T02:55:17.709Z,-1.76
2022-12-13T02:57:48.704Z,-1.70
2022-12-13T03:00:19.157Z,-1.66
2022-12-13T03:03:01.910Z,-1.75
2022-12-13T03:05:57.772Z,-1.61
2022-12-13T03:08:30.590Z,-1.66
2022-12-13T03:11:05.919Z,-1.70
2022-12-13T03:13:41.987Z,-1.69
2022-12-13T03:16:15.910Z,-1.65
2022-12-13T03:18:54.006Z,-1.63
2022-12-13T03:21:23.176Z,-1.70
2022-12-13T03:23:51.022Z,-1.81
2022-12-13T03:26:22.488Z,-1.77
2022-12-13T03:28:50.610Z,-1.77
2022-12-13T03:31:18.741Z,-1.69
2022-12-13T03:33:47.059Z,-1.58
2022-12-13T03:36:18.780Z,-1.53
2022-12-13T03:38:47.017Z,-1.51
2022-12-13T03:41:17.964Z,-1.52
2022-12-13T03:43:46.323Z,-1.50
2022-12-13T03:46:14.229Z,-1.42
2022-12-13T03:48:42.096Z,-1.33
2022-12-13T03:51:09.924Z,-1.29
2022-12-13T03:53:39.084Z,-1.28
2022-12-13T03:56:07.378Z,-1.25
2022-12-13T03:58:37.900Z,-1.20
2022-12-13T04:01:07.713Z,-1.10
2022-12-13T04:03:35.865Z,-1.07
2022-12-13T04:06:04.635Z,-1.09
2022-12-13T04:08:33.219Z,-1.08
2022-12-13T04:11:23.651Z,-1.09
2022-12-13T04:13:50.908Z,-0.96
2022-12-13T04:16:18.848Z,-0.87
2022-12-13T04:18:46.857Z,-0.80
2022-12-13T04:21:14.970Z,-0.75
2022-12-13T04:23:42.799Z,-0.71
2022-12-13T04:26:12.053Z,-0.68
2022-12-13T04:28:39.984Z,-0.67
2022-12-13T04:31:07.960Z,-0.66
2022-12-13T04:33:35.852Z,-0.72
2022-12-13T04:36:04.195Z,-0.64
2022-12-13T04:38:32.073Z,-0.66
2022-12-13T04:41:14.225Z,-0.67
2022-12-13T04:43:43.466Z,-0.66
2022-12-13T04:46:12.742Z,-0.63
2022-12-13T04:48:40.731Z,-0.58
2022-12-13T04:51:08.656Z,-0.57
2022-12-13T04:53:36.506Z,-0.58
2022-12-13T04:56:05.477Z,-0.64
2022-12-13T04:58:33.343Z,-0.56
2022-12-13T05:01:02.965Z,-0.53
2022-12-13T05:03:30.893Z,-0.52
2022-12-13T05:05:58.699Z,-0.47
2022-12-13T05:08:26.569Z,-0.52
2022-12-13T05:10:55.563Z,-0.51
2022-12-13T05:13:23.342Z,-0.53
2022-12-13T05:15:56.085Z,-0.50
2022-12-13T05:18:25.782Z,-0.50
2022-12-13T05:20:54.396Z,-0.67
2022-12-13T05:23:25.013Z,-0.65
2022-12-13T05:25:53.165Z,-0.62
2022-12-13T05:28:27.572Z,-0.67
2022-12-13T05:30:57.554Z,-0.51
2022-12-13T05:33:27.211Z,-0.48
2022-12-13T05:36:00.507Z,-0.45
2022-12-13T05:38:32.310Z,-0.42
2022-12-13T05:41:00.944Z,-0.41
2022-12-13T05:43:42.077Z,-0.39
2022-12-13T05:46:10.684Z,-0.40
2022-12-13T05:48:40.075Z,-0.42
2022-12-13T05:51:09.794Z,-0.51
2022-12-13T05:53:40.006Z,-0.45
2022-12-13T05:56:10.198Z,-0.44
2022-12-13T05:58:38.993Z,-0.43
2022-12-13T06:01:08.730Z,-0.48
2022-12-13T06:03:36.937Z,-0.58
2022-12-13T06:06:08.591Z,-0.62
2022-12-13T06:08:37.249Z,-0.61
2022-12-13T06:11:10.662Z,-0.57
2022-12-13T06:13:43.246Z,-0.53
2022-12-13T06:16:21.921Z,-0.46
2022-12-13T06:18:55.757Z,-0.62
2022-12-13T06:21:40.715Z,-0.42
2022-12-13T06:24:11.811Z,-0.40
2022-12-13T06:26:39.560Z,-0.38
2022-12-13T06:29:07.612Z,-0.35
2022-12-13T06:31:35.503Z,-0.41
2022-12-13T06:34:14.835Z,-0.33
2022-12-13T06:36:44.691Z,-0.33
2022-12-13T06:39:12.559Z,-0.44
2022-12-13T06:41:40.472Z,-0.42
2022-12-13T06:44:08.917Z,-0.40
2022-12-13T06:46:37.055Z,-0.40
2022-12-13T06:49:08.978Z,-0.42
2022-12-13T06:51:36.798Z,-0.39
2022-12-13T06:54:06.067Z,-0.46
2022-12-13T06:56:33.858Z,-0.40
2022-12-13T06:59:02.387Z,-0.39
2022-12-13T07:01:37.895Z,-0.33
2022-12-13T07:04:29.594Z,-0.27
2022-12-13T07:06:54.746Z,-0.21
2022-12-13T07:09:24.018Z,-0.16
2022-12-13T07:11:52.662Z,-0.14
2022-12-13T07:14:21.051Z,-0.10
2022-12-13T07:16:48.926Z,-0.11
2022-12-13T07:19:23.782Z,-0.06
2022-12-13T07:21:52.686Z,-0.03
2022-12-13T07:24:20.732Z,-0.01
2022-12-13T07:26:49.943Z,0.03
2022-12-13T07:29:22.476Z,0.05
2022-12-13T07:31:50.804Z,0.07
2022-12-13T07:34:18.740Z,0.11
2022-12-13T07:36:46.842Z,0.15
2022-12-13T07:39:14.671Z,0.10
2022-12-13T07:41:42.576Z,0.06
2022-12-13T07:44:11.764Z,-0.05
2022-12-13T07:46:39.805Z,-0.10
2022-12-13T07:49:07.770Z,-0.17
2022-12-13T07:51:36.318Z,-0.31
2022-12-13T07:54:06.255Z,-0.29
2022-12-13T07:56:34.831Z,-0.30
2022-12-13T07:59:02.784Z,-0.47
2022-12-13T08:01:34.531Z,-0.42
2022-12-13T08:04:03.004Z,-0.42
2022-12-13T08:06:31.443Z,-0.43
2022-12-13T08:08:59.411Z,-0.44
2022-12-13T08:11:27.251Z,-0.44
2022-12-13T08:13:55.232Z,-0.46
2022-12-13T08:16:26.685Z,-0.47
2022-12-13T08:19:02.697Z,-0.47
2022-12-13T08:24:24.580Z,-0.44
2022-12-13T08:26:55.380Z,-0.42
2022-12-13T08:29:33.477Z,-0.40
2022-12-13T08:32:04.366Z,-0.39
2022-12-13T08:34:33.590Z,-0.38
2022-12-13T08:37:03.581Z,-0.37
2022-12-13T08:39:34.654Z,-0.35
2022-12-13T08:42:15.214Z,-0.32
2022-12-13T08:44:47.006Z,-0.36
2022-12-13T08:47:23.203Z,-0.34
2022-12-13T08:49:54.090Z,-0.31
2022-12-13T08:52:23.236Z,-0.40
2022-12-13T08:54:51.356Z,-0.50
2022-12-13T08:57:19.193Z,-0.58
2022-12-13T08:59:47.051Z,-0.66
2022-12-13T09:02:15.352Z,-0.69
2022-12-13T09:04:43.481Z,-0.61
2022-12-13T09:07:12.886Z,-0.53
2022-12-13T09:09:40.702Z,-0.50
2022-12-13T09:12:10.695Z,-0.59
2022-12-13T09:14:45.727Z,-0.47
2022-12-13T09:17:24.526Z,-0.48
2022-12-13T09:19:58.210Z,-0.49
2022-12-13T09:22:33.398Z,-0.47
2022-12-13T09:25:03.009Z,-0.46
2022-12-13T09:27:39.516Z,-0.49
2022-12-13T09:30:12.148Z,-0.44
2022-12-13T09:32:40.606Z,-0.37
2022-12-13T09:35:09.390Z,-0.46
2022-12-13T09:37:44.155Z,-0.31
2022-12-13T09:40:25.682Z,-0.35
2022-12-13T09:43:13.686Z,-0.35
2022-12-13T09:45:46.761Z,-0.36
2022-12-13T09:48:22.707Z,-0.39
2022-12-13T09:51:15.944Z,-0.37
2022-12-13T09:53:42.601Z,-0.33
2022-12-13T09:56:13.066Z,-0.27
2022-12-13T09:58:40.960Z,-0.28
2022-12-13T10:01:08.862Z,-0.23
2022-12-13T10:03:36.774Z,-0.25
2022-12-13T10:06:22.802Z,-0.20
2022-12-13T10:08:58.364Z,-0.16
2022-12-13T10:11:31.850Z,-0.13
2022-12-13T10:14:03.695Z,-0.10
2022-12-13T10:16:43.649Z,-0.05
2022-12-13T10:19:29.036Z,-0.06
2022-12-13T10:22:02.081Z,-0.04
2022-12-13T10:24:49.443Z,-0.07
2022-12-13T10:27:19.611Z,-0.04
2022-12-13T10:29:59.825Z,-0.07
2022-12-13T10:32:27.735Z,-0.08
2022-12-13T10:34:56.278Z,-0.05
2022-12-13T10:37:31.635Z,-0.01
2022-12-13T10:40:00.915Z,0.01
2022-12-13T10:42:33.880Z,0.04
2022-12-13T10:45:23.603Z,0.04
2022-12-13T10:47:52.246Z,0.10
2022-12-13T10:50:26.342Z,0.12
2022-12-13T10:52:55.873Z,0.14
2022-12-13T10:55:30.636Z,0.14
2022-12-13T10:58:02.357Z,0.11
2022-12-13T11:00:38.762Z,0.19
2022-12-13T11:03:08.219Z,0.05
2022-12-13T11:05:38.232Z,0.12
2022-12-13T11:08:17.558Z,0.16
2022-12-13T11:10:47.782Z,0.16
2022-12-13T11:13:26.237Z,0.15
2022-12-13T11:15:57.786Z,0.18
2022-12-13T11:18:28.127Z,0.23
2022-12-13T11:20:58.351Z,0.20
2022-12-13T11:23:30.717Z,0.21
2022-12-13T11:26:05.922Z,0.23
2022-12-13T11:28:57.616Z,-0.17
2022-12-13T11:31:32.763Z,0.20
2022-12-13T11:34:10.242Z,0.20
2022-12-13T11:36:48.522Z,0.15
2022-12-13T11:39:22.288Z,0.13
2022-12-13T11:41:56.154Z,0.14
2022-12-13T11:44:30.423Z,-0.03
2022-12-13T11:47:01.092Z,0.17
2022-12-13T11:49:39.344Z,0.17
2022-12-13T11:52:16.404Z,0.19
2022-12-13T11:54:51.530Z,0.18
2022-12-13T11:57:33.313Z,0.17
2022-12-13T12:00:13.168Z,0.17
2022-12-13T12:02:48.546Z,0.12
2022-12-13T12:05:26.454Z,0.14
2022-12-13T12:08:43.430Z,0.17
2022-12-13T12:10:50.255Z,0.15
2022-12-13T12:13:25.434Z,0.15
2022-12-13T12:16:01.661Z,0.16
2022-12-13T12:18:29.710Z,0.18
2022-12-13T12:21:07.663Z,0.17
2022-12-13T12:23:52.434Z,0.19
2022-12-13T12:26:27.294Z,0.20
2022-12-13T12:29:21.228Z,0.25
2022-12-13T12:31:54.989Z,0.35
2022-12-13T12:34:34.785Z,0.39
2022-12-13T12:37:12.967Z,0.46
2022-12-13T12:40:02.241Z,0.45
2022-12-13T12:43:13.952Z,0.58
2022-12-13T12:45:59.683Z,0.72
2022-12-13T12:48:56.990Z,0.73
2022-12-13T12:51:34.072Z,0.80
2022-12-13T12:54:20.022Z,0.91
2022-12-13T12:56:56.475Z,0.98
2022-12-13T12:59:34.474Z,1.12
2022-12-13T13:02:12.672Z,1.19
2022-12-13T13:04:47.016Z,1.22
2022-12-13T13:07:22.608Z,1.29
2022-12-13T13:09:55.230Z,1.37
2022-12-13T13:12:30.353Z,1.45
2022-12-13T13:14:59.095Z,1.53
2022-12-13T13:17:48.136Z,1.60
2022-12-13T13:20:26.426Z,1.62
2022-12-13T13:23:17.519Z,1.65
2022-12-13T13:28:44.783Z,1.76
2022-12-13T13:31:12.658Z,1.81
2022-12-13T13:33:47.230Z,1.83
2022-12-13T13:36:47.217Z,1.87
2022-12-13T13:39:17.047Z,1.91
2022-12-13T13:42:09.110Z,1.94
2022-12-13T13:45:03.143Z,1.93
2022-12-13T13:47:42.842Z,1.93
2022-12-13T13:50:41.461Z,1.95
2022-12-13T13:53:46.694Z,1.98
2022-12-13T13:56:36.677Z,2.03
2022-12-13T13:59:24.762Z,2.04
2022-12-13T14:02:06.387Z,2.09
2022-12-13T14:05:16.921Z,2.12
2022-12-13T14:08:29.552Z,2.12
2022-12-13T14:11:22.151Z,2.08
2022-12-13T14:14:27.031Z,2.06
2022-12-13T14:17:32.810Z,2.02
2022-12-13T14:20:39.528Z,1.91
2022-12-13T14:23:13.739Z,1.91
2022-12-13T14:26:07.169Z,1.85
2022-12-13T14:28:46.130Z,1.77
2022-12-13T14:31:21.618Z,1.63
2022-12-13T14:33:52.123Z,1.67
2022-12-13T14:36:28.650Z,1.55
2022-12-13T14:39:03.498Z,1.42
2022-12-13T14:41:32.799Z,1.28
2022-12-13T14:44:16.434Z,1.14
2022-12-13T14:46:55.676Z,1.01
2022-12-13T14:49:25.999Z,0.86
2022-12-13T14:52:01.453Z,0.75
2022-12-13T14:54:46.038Z,0.66
2022-12-13T14:57:20.553Z,0.57
2022-12-13T14:59:50.725Z,0.52
2022-12-13T15:02:30.477Z,0.42
2022-12-13T15:05:02.079Z,0.33
2022-12-13T15:07:33.836Z,0.27
2022-12-13T15:10:04.713Z,0.21
2022-12-13T15:12:34.150Z,0.16
2022-12-13T15:15:04.127Z,0.11
2022-12-13T15:17:35.809Z,0.07
2022-12-13T15:20:25.386Z,-0.01
2022-12-13T15:23:01.988Z,-0.07
2022-12-13T15:25:40.563Z,-0.13
2022-12-13T15:28:18.196Z,-0.20
2022-12-13T15:30:49.859Z,-0.31
2022-12-13T15:33:20.739Z,-0.38
2022-12-13T15:35:49.677Z,-0.56
2022-12-13T15:38:29.071Z,-0.50
2022-12-13T15:40:57.471Z,-0.51
2022-12-13T15:43:36.335Z,-0.63
2022-12-13T15:46:12.628Z,-0.53
2022-12-13T15:48:48.313Z,-0.53
2022-12-13T15:51:30.347Z,-0.53
2022-12-13T15:54:05.177Z,-0.57
2022-12-13T15:56:36.472Z,-0.58
2022-12-13T15:59:26.446Z,-0.64
2022-12-13T16:01:58.655Z,-0.69
2022-12-13T16:04:29.286Z,-0.75
2022-12-13T16:07:03.228Z,-0.82
2022-12-13T16:09:38.145Z,-0.81
2022-12-13T16:12:07.995Z,-0.85
2022-12-13T16:14:49.255Z,-0.85
2022-12-13T16:17:24.587Z,-0.88
2022-12-13T16:19:53.558Z,-0.96
2022-12-13T16:22:23.993Z,-1.01
2022-12-13T16:24:53.060Z,-1.02
2022-12-13T16:27:21.546Z,-1.05
2022-12-13T16:29:50.867Z,-1.09
2022-12-13T16:32:18.858Z,-1.11
2022-12-13T16:34:46.791Z,-1.20
2022-12-13T16:37:26.478Z,-1.17
2022-12-13T16:39:56.628Z,-1.13
2022-12-13T16:42:26.149Z,-1.10
2022-12-13T16:45:32.303Z,-1.08
2022-12-13T16:47:49.316Z,-1.12
2022-12-13T16:50:20.125Z,-1.17
2022-12-13T16:52:48.173Z,-1.15
2022-12-13T16:55:16.818Z,-1.16
2022-12-13T16:57:56.419Z,-1.29
2022-12-13T17:00:26.779Z,-1.29
2022-12-13T17:02:54.946Z,-1.38
2022-12-13T17:05:23.656Z,-1.26
2022-12-13T17:07:51.531Z,-1.24
2022-12-13T17:10:20.259Z,-1.21
2022-12-13T17:12:48.127Z,-1.24
2022-12-13T17:15:17.098Z,-1.27
2022-12-13T17:17:47.710Z,-1.26
2022-12-13T17:20:17.256Z,-1.27
2022-12-13T17:22:46.538Z,-1.25
2022-12-13T17:25:14.965Z,-1.27
2022-12-13T17:27:43.098Z,-1.35
2022-12-13T17:30:15.486Z,-1.42
2022-12-13T17:32:43.491Z,-1.46
2022-12-13T17:35:17.888Z,-1.47
2022-12-13T17:37:46.603Z,-1.51
2022-12-13T17:40:14.439Z,-1.53
2022-12-13T17:42:42.405Z,-1.49
2022-12-13T17:45:11.076Z,-1.46
2022-12-13T17:47:39.698Z,-1.43
2022-12-13T17:50:08.920Z,-1.45
2022-12-13T17:52:39.099Z,-1.46
2022-12-13T17:55:07.511Z,-1.51
2022-12-13T17:57:35.823Z,-1.61
2022-12-13T18:00:04.914Z,-1.62
2022-12-13T18:02:40.741Z,-1.63
2022-12-13T18:05:17.628Z,-1.64
2022-12-13T18:07:50.638Z,-1.61
2022-12-13T18:10:19.051Z,-1.61
2022-12-13T18:12:46.835Z,-1.77
2022-12-13T18:15:14.939Z,-1.87
2022-12-13T18:18:10.055Z,-1.83
2022-12-13T18:20:30.917Z,-1.84
2022-12-13T18:23:00.087Z,-1.85
2022-12-13T18:25:28.139Z,-1.90
2022-12-13T18:28:00.676Z,-1.99
2022-12-13T18:30:31.058Z,-2.10
2022-12-13T18:32:58.894Z,-2.16
2022-12-13T18:35:26.808Z,-2.21
2022-12-13T18:37:54.605Z,-2.08
2022-12-13T18:40:23.849Z,-2.05
2022-12-13T18:42:52.116Z,-2.14
2022-12-13T18:45:20.493Z,-2.19
2022-12-13T18:47:48.996Z,-2.30
2022-12-13T18:50:16.964Z,-2.28
2022-12-13T18:52:44.879Z,-2.17
2022-12-13T18:55:13.191Z,-2.06
2022-12-13T18:57:42.855Z,-2.00
2022-12-13T19:00:12.801Z,-1.98
2022-12-13T19:02:41.676Z,-2.04
2022-12-13T19:05:10.509Z,-2.16
2022-12-13T19:07:38.394Z,-2.21
2022-12-13T19:10:06.820Z,-2.18
2022-12-13T19:12:34.997Z,-2.13
2022-12-13T19:15:06.092Z,-2.10
2022-12-13T19:17:34.461Z,-2.08
2022-12-13T19:20:02.626Z,-2.09
2022-12-13T19:22:30.800Z,-2.07
2022-12-13T19:24:58.896Z,-2.10
2022-12-13T19:27:26.808Z,-2.10
2022-12-13T19:29:54.731Z,-2.09
2022-12-13T19:32:23.956Z,-2.09
2022-12-13T19:34:51.837Z,-2.08
2022-12-13T19:37:19.660Z,-2.15
2022-12-13T19:39:47.436Z,-2.23
2022-12-13T19:42:15.382Z,-2.23
2022-12-13T19:44:43.157Z,-2.22
2022-12-13T19:47:11.047Z,-2.22
2022-12-13T19:49:41.441Z,-2.21
2022-12-13T19:52:09.328Z,-2.27
2022-12-13T19:54:37.206Z,-2.32
2022-12-13T19:57:07.366Z,-2.42
2022-12-13T19:59:35.564Z,-2.53
2022-12-13T20:02:05.522Z,-2.52
2022-12-13T20:04:33.551Z,-2.57
2022-12-13T20:07:03.361Z,-2.55
2022-12-13T20:09:31.285Z,-2.53
2022-12-13T20:11:59.106Z,-2.67
2022-12-13T20:14:27.368Z,-2.75
2022-12-13T20:16:55.338Z,-2.83
2022-12-13T20:19:24.012Z,-2.88
2022-12-13T20:21:56.698Z,-2.83
2022-12-13T20:24:26.410Z,-2.74
2022-12-13T20:26:54.301Z,-2.69
2022-12-13T20:29:22.951Z,-2.61
2022-12-13T20:31:51.587Z,-2.58
2022-12-13T20:34:21.025Z,-2.75
2022-12-13T20:36:49.282Z,-2.71
2022-12-13T20:39:17.113Z,-2.77
2022-12-13T20:41:46.303Z,-2.80
2022-12-13T20:44:14.607Z,-2.83
2022-12-13T20:46:42.559Z,-2.87
2022-12-13T20:49:11.396Z,-2.84
2022-12-13T20:51:41.519Z,-2.80
2022-12-13T20:54:09.769Z,-2.91
2022-12-13T20:56:39.682Z,-3.00
2022-12-13T20:59:11.562Z,-3.09
2022-12-13T21:01:40.633Z,-3.20
2022-12-13T21:04:10.420Z,-3.15
2022-12-13T21:06:40.702Z,-3.24
2022-12-13T21:09:10.018Z,-3.40
2022-12-13T21:11:40.668Z,-3.51
2022-12-13T21:14:18.782Z,-3.63
2022-12-13T21:16:50.323Z,-3.63
2022-12-13T21:19:21.531Z,-3.88
2022-12-13T21:21:50.796Z,-3.56
2022-12-13T21:24:20.210Z,-3.57
2022-12-13T21:26:48.432Z,-3.64
2022-12-13T21:29:17.862Z,-3.69
2022-12-13T21:31:51.472Z,-3.71
2022-12-13T21:34:20.084Z,-3.75
2022-12-13T21:36:50.421Z,-3.79
2022-12-13T21:39:20.005Z,-3.80
2022-12-13T21:41:48.459Z,-3.94
2022-12-13T21:44:18.910Z,-3.93
2022-12-13T21:47:11.191Z,-3.96
2022-12-13T21:49:35.096Z,-4.03
2022-12-13T21:52:03.046Z,-3.96
2022-12-13T21:54:30.824Z,-4.02
2022-12-13T21:57:16.314Z,-3.95
2022-12-13T21:59:45.576Z,-3.89
2022-12-13T22:02:16.365Z,-3.83
2022-12-13T22:04:46.255Z,-3.92
2022-12-13T22:07:16.159Z,-3.81
2022-12-13T22:09:45.162Z,-3.65
2022-12-13T22:12:21.080Z,-3.55
2022-12-13T22:14:51.281Z,-3.56
2022-12-13T22:17:28.256Z,-3.56
2022-12-13T22:19:59.454Z,-3.56
2022-12-13T22:22:27.573Z,-3.47
2022-12-13T22:24:55.389Z,-3.42
2022-12-13T22:27:25.437Z,-3.51
2022-12-13T22:29:56.854Z,-3.56
2022-12-13T22:32:26.978Z,-3.54
2022-12-13T22:34:55.162Z,-3.54
2022-12-13T22:37:23.070Z,-3.59
2022-12-13T22:39:51.159Z,-3.58
2022-12-13T22:42:20.066Z,-3.53
2022-12-13T22:44:48.182Z,-3.51
2022-12-13T22:47:17.474Z,-3.52
2022-12-13T22:49:48.828Z,-3.48
2022-12-13T22:52:17.223Z,-3.47
2022-12-13T22:54:45.068Z,-3.44
2022-12-13T22:57:12.992Z,-3.48
2022-12-13T22:59:41.166Z,-3.54
2022-12-13T23:02:09.979Z,-3.55
2022-12-13T23:04:39.397Z,-3.55
2022-12-13T23:07:07.283Z,-3.74
2022-12-13T23:09:35.132Z,-3.76
2022-12-13T23:12:20.559Z,-3.78
2022-12-13T23:14:48.367Z,-3.93
2022-12-13T23:17:16.126Z,-4.01
2022-12-13T23:19:50.078Z,-3.96
2022-12-13T23:22:19.882Z,-4.03
2022-12-13T23:24:47.717Z,-4.08
2022-12-13T23:27:15.817Z,-4.07
2022-12-13T23:29:43.652Z,-4.21
2022-12-13T23:32:11.645Z,-4.18
2022-12-13T23:34:39.435Z,-4.23
2022-12-13T23:37:08.670Z,-4.23
2022-12-13T23:39:36.459Z,-4.21
2022-12-13T23:42:04.498Z,-4.09
2022-12-13T23:44:32.275Z,-4.25
2022-12-13T23:47:00.096Z,-4.27
2022-12-13T23:49:28.040Z,-4.42
2022-12-13T23:51:56.016Z,-4.36
2022-12-13T23:54:25.202Z,-4.44
2022-12-13T23:56:53.010Z,-4.49
2022-12-13T23:59:20.902Z,-4.45
